createdAt,value
2018-06-27T00:01:44.121Z,7.70
2018-06-27T00:04:14.028Z,7.13
2018-06-27T00:06:43.876Z,7.40
2018-06-27T00:09:13.812Z,7.03
2018-06-27T00:11:43.707Z,7.40
2018-06-27T00:14:13.599Z,6.60
2018-06-27T00:16:43.444Z,7.23
2018-06-27T00:19:13.360Z,7.07
2018-06-27T00:21:43.241Z,7.00
2018-06-27T00:24:13.108Z,7.50
2018-06-27T00:26:42.941Z,7.33
2018-06-27T00:29:12.740Z,7.20
2018-06-27T00:31:42.588Z,7.03
2018-06-27T00:34:12.420Z,7.37
2018-06-27T00:36:42.278Z,6.67
2018-06-27T00:39:12.192Z,7.57
2018-06-27T00:41:42.138Z,7.70
2018-06-27T00:44:11.961Z,7.67
2018-06-27T00:46:41.904Z,7.70
2018-06-27T00:49:11.808Z,8.20
2018-06-27T00:51:41.625Z,8.20
2018-06-27T00:54:11.519Z,8.60
2018-06-27T00:56:42.072Z,8.40
2018-06-27T00:59:11.963Z,8.43
2018-06-27T01:01:41.765Z,8.33
2018-06-27T01:04:11.620Z,8.47
2018-06-27T01:06:41.538Z,7.93
2018-06-27T01:09:11.583Z,8.50
2018-06-27T01:11:41.470Z,8.50
2018-06-27T01:14:11.422Z,7.97
2018-06-27T01:16:41.981Z,7.63
2018-06-27T01:19:11.842Z,6.70
2018-06-27T01:21:41.679Z,6.47
2018-06-27T01:24:11.520Z,6.60
2018-06-27T01:26:41.348Z,6.60
2018-06-27T01:29:11.234Z,6.43
2018-06-27T01:31:41.089Z,5.63
2018-06-27T01:34:10.940Z,6.00
2018-06-27T01:36:40.781Z,6.50
2018-06-27T01:39:11.232Z,5.87
2018-06-27T01:41:41.117Z,5.63
2018-06-27T01:44:10.948Z,5.93
2018-06-27T01:46:40.755Z,6.47
2018-06-27T01:49:10.612Z,6.07
2018-06-27T01:51:40.443Z,5.47
2018-06-27T01:54:10.381Z,6.20
2018-06-27T01:56:40.224Z,5.83
2018-06-27T01:59:10.061Z,5.63
2018-06-27T02:01:39.924Z,6.00
2018-06-27T02:04:09.837Z,5.80
2018-06-27T02:06:39.761Z,6.10
2018-06-27T02:09:10.792Z,5.83
2018-06-27T02:11:40.673Z,5.73
2018-06-27T02:14:10.477Z,5.50
2018-06-27T02:16:40.344Z,5.10
2018-06-27T02:19:10.246Z,5.50
2018-06-27T02:21:40.142Z,5.10
2018-06-27T02:24:10.448Z,6.53
2018-06-27T02:26:40.319Z,5.30
2018-06-27T02:29:10.111Z,5.73
2018-06-27T02:31:40.068Z,5.63
2018-06-27T02:34:09.890Z,5.43
2018-06-27T02:36:39.744Z,6.03
2018-06-27T02:39:10.707Z,5.07
2018-06-27T02:41:41.887Z,5.33
2018-06-27T02:44:12.108Z,5.70
2018-06-27T02:46:41.944Z,7.53
2018-06-27T02:49:11.825Z,5.90
2018-06-27T02:51:41.684Z,5.90
2018-06-27T02:54:11.566Z,5.57
2018-06-27T02:56:41.434Z,5.43
2018-06-27T02:59:11.308Z,5.10
2018-06-27T03:01:41.124Z,5.10
2018-06-27T03:04:10.986Z,5.70
2018-06-27T03:06:40.830Z,5.83
2018-06-27T03:09:11.426Z,5.80
2018-06-27T03:11:41.296Z,7.53
2018-06-27T03:14:11.160Z,7.60
2018-06-27T03:16:41.072Z,10.93
2018-06-27T03:19:10.933Z,5.83
2018-06-27T03:21:40.820Z,5.87
2018-06-27T03:24:10.623Z,5.43
2018-06-27T03:26:40.512Z,5.00
2018-06-27T03:29:10.463Z,4.90
2018-06-27T03:31:40.300Z,5.63
2018-06-27T03:34:10.186Z,5.53
2018-06-27T03:36:39.984Z,5.77
2018-06-27T03:39:10.213Z,5.80
2018-06-27T03:41:40.078Z,5.70
2018-06-27T03:44:09.952Z,5.90
2018-06-27T03:46:39.796Z,5.90
2018-06-27T03:49:09.596Z,6.30
2018-06-27T03:51:39.480Z,5.60
2018-06-27T03:54:09.288Z,5.90
2018-06-27T03:56:39.156Z,6.10
2018-06-27T03:59:09.073Z,5.73
2018-06-27T04:01:38.948Z,5.77
2018-06-27T04:04:08.756Z,6.47
2018-06-27T04:06:38.602Z,6.70
2018-06-27T04:09:11.332Z,5.80
2018-06-27T04:11:42.160Z,6.73
2018-06-27T04:14:12.108Z,7.40
2018-06-27T04:16:41.972Z,7.73
2018-06-27T04:19:11.852Z,8.57
2018-06-27T04:21:41.708Z,8.03
2018-06-27T04:24:11.563Z,7.40
2018-06-27T04:26:41.476Z,7.90
2018-06-27T04:29:11.333Z,7.13
2018-06-27T04:31:41.205Z,7.30
2018-06-27T04:34:11.013Z,7.40
2018-06-27T04:36:40.888Z,7.53
2018-06-27T04:39:11.820Z,7.60
2018-06-27T04:41:41.766Z,7.20
2018-06-27T04:44:11.612Z,7.23
2018-06-27T04:46:41.457Z,7.63
2018-06-27T04:49:11.298Z,8.03
2018-06-27T04:54:32.260Z,8.77
2018-06-27T04:57:02.161Z,8.33
2018-06-27T04:59:31.991Z,7.30
2018-06-27T05:02:02.022Z,7.73
2018-06-27T05:04:31.852Z,7.90
2018-06-27T05:07:01.686Z,8.73
2018-06-27T05:09:31.520Z,7.83
2018-06-27T05:12:01.404Z,8.40
2018-06-27T05:14:31.309Z,7.83
2018-06-27T05:17:01.163Z,8.07
2018-06-27T05:19:31.018Z,7.90
2018-06-27T05:22:00.805Z,8.10
2018-06-27T05:24:30.759Z,8.63
2018-06-27T05:27:00.656Z,8.60
2018-06-27T05:29:30.560Z,8.60
2018-06-27T05:32:00.472Z,7.47
2018-06-27T05:34:30.353Z,7.97
2018-06-27T05:37:00.212Z,8.70
2018-06-27T05:39:30.044Z,8.80
2018-06-27T05:41:59.954Z,8.27
2018-06-27T05:44:29.770Z,7.80
2018-06-27T05:46:59.783Z,7.50
2018-06-27T05:49:29.704Z,8.27
2018-06-27T05:51:59.629Z,7.47
2018-06-27T05:54:29.485Z,7.60
2018-06-27T05:56:59.420Z,7.87
2018-06-27T05:59:29.336Z,8.03
2018-06-27T06:01:59.178Z,8.13
2018-06-27T06:04:29.179Z,8.90
2018-06-27T06:06:59.053Z,8.10
2018-06-27T06:09:28.957Z,8.00
2018-06-27T06:11:58.848Z,7.47
2018-06-27T06:14:28.729Z,6.87
2018-06-27T06:16:58.653Z,7.13
2018-06-27T06:19:28.532Z,5.57
2018-06-27T06:21:58.465Z,4.57
2018-06-27T06:24:28.420Z,3.60
2018-06-27T06:26:58.393Z,6.43
2018-06-27T06:29:28.247Z,3.77
2018-06-27T06:31:58.090Z,4.93
2018-06-27T06:34:27.940Z,5.53
2018-06-27T06:36:57.866Z,4.73
2018-06-27T06:39:27.775Z,4.90
2018-06-27T06:41:57.695Z,6.40
2018-06-27T06:44:27.721Z,5.37
2018-06-27T06:46:57.582Z,4.77
2018-06-27T06:49:27.499Z,6.93
2018-06-27T06:51:57.481Z,6.77
2018-06-27T06:54:27.640Z,7.73
2018-06-27T06:56:57.604Z,6.03
2018-06-27T06:59:27.517Z,6.00
2018-06-27T07:01:57.496Z,7.00
2018-06-27T07:04:27.444Z,13.03
2018-06-27T07:06:57.357Z,12.03
2018-06-27T07:09:27.272Z,6.47
2018-06-27T07:11:57.217Z,5.43
2018-06-27T07:14:27.313Z,5.33
2018-06-27T07:16:57.148Z,5.80
2018-06-27T07:19:27.997Z,5.53
2018-06-27T07:21:58.579Z,5.90
2018-06-27T07:24:28.873Z,7.23
2018-06-27T07:26:58.831Z,6.80
2018-06-27T07:29:28.933Z,6.10
2018-06-27T07:31:58.850Z,5.07
2018-06-27T07:34:28.705Z,5.93
2018-06-27T07:36:59.004Z,6.10
2018-06-27T07:39:28.848Z,6.27
2018-06-27T07:41:58.701Z,5.43
2018-06-27T07:44:28.604Z,5.37
2018-06-27T07:46:58.568Z,9.63
2018-06-27T07:49:28.504Z,10.83
2018-06-27T07:51:58.365Z,7.93
2018-06-27T07:54:28.287Z,5.13
2018-06-27T07:56:58.136Z,5.50
2018-06-27T07:59:28.019Z,8.53
2018-06-27T08:01:57.949Z,6.87
2018-06-27T08:04:27.844Z,37.00
2018-06-27T08:06:57.860Z,6.63
2018-06-27T08:09:27.910Z,6.00
2018-06-27T08:11:57.725Z,5.87
2018-06-27T08:14:27.605Z,8.80
2018-06-27T08:16:57.609Z,4.13
2018-06-27T08:19:27.576Z,4.60
2018-06-27T08:21:57.546Z,4.77
2018-06-27T08:24:27.651Z,4.47
2018-06-27T08:26:58.655Z,4.40
2018-06-27T08:29:28.625Z,3.80
2018-06-27T08:31:58.731Z,3.50
2018-06-27T08:34:28.629Z,4.57
2018-06-27T08:36:58.606Z,4.00
2018-06-27T08:39:28.563Z,3.20
2018-06-27T08:41:58.505Z,3.53
2018-06-27T08:44:28.496Z,4.07
2018-06-27T08:46:58.293Z,5.17
2018-06-27T08:49:28.282Z,4.37
2018-06-27T08:51:58.194Z,5.00
2018-06-27T08:54:28.044Z,4.60
2018-06-27T08:56:58.000Z,4.50
2018-06-27T08:59:27.852Z,5.23
2018-06-27T09:01:57.901Z,3.83
2018-06-27T09:04:27.748Z,3.33
2018-06-27T09:06:57.703Z,3.40
2018-06-27T09:09:27.709Z,3.33
2018-06-27T09:11:57.724Z,3.33
2018-06-27T09:14:27.580Z,3.80
2018-06-27T09:16:57.417Z,4.97
2018-06-27T09:19:27.304Z,6.63
2018-06-27T09:21:57.151Z,6.10
2018-06-27T09:24:27.065Z,5.77
2018-06-27T09:26:56.917Z,5.20
2018-06-27T09:29:26.770Z,7.30
2018-06-27T09:31:56.645Z,6.20
2018-06-27T09:34:26.546Z,6.60
2018-06-27T09:36:56.415Z,6.70
2018-06-27T09:39:26.235Z,8.97
2018-06-27T09:41:56.212Z,9.20
2018-06-27T09:44:26.075Z,8.17
2018-06-27T09:46:55.961Z,7.87
2018-06-27T09:49:26.024Z,9.77
2018-06-27T09:51:55.888Z,9.33
2018-06-27T09:54:25.778Z,8.80
2018-06-27T09:56:55.808Z,9.83
2018-06-27T09:59:25.636Z,9.20
2018-06-27T10:01:55.538Z,8.73
2018-06-27T10:04:25.416Z,8.87
2018-06-27T10:06:55.273Z,8.47
2018-06-27T10:09:25.476Z,9.37
2018-06-27T10:11:55.559Z,9.13
2018-06-27T10:14:25.597Z,8.60
2018-06-27T10:16:55.420Z,9.20
2018-06-27T10:19:25.336Z,9.33
2018-06-27T10:21:55.182Z,9.37
2018-06-27T10:24:25.101Z,8.97
2018-06-27T10:26:55.613Z,7.73
2018-06-27T10:29:25.508Z,8.40
2018-06-27T10:31:55.533Z,8.60
2018-06-27T10:34:25.376Z,8.10
2018-06-27T10:36:55.185Z,8.87
2018-06-27T10:39:26.021Z,8.67
2018-06-27T10:41:56.036Z,8.90
2018-06-27T10:44:25.937Z,9.50
2018-06-27T10:46:55.816Z,9.30
2018-06-27T10:49:25.783Z,9.70
2018-06-27T10:51:55.677Z,9.33
2018-06-27T10:54:25.528Z,10.23
2018-06-27T10:56:55.500Z,10.83
2018-06-27T10:59:25.446Z,10.40
2018-06-27T11:01:55.300Z,10.10
2018-06-27T11:04:25.137Z,9.87
2018-06-27T11:06:55.030Z,11.83
2018-06-27T11:09:24.928Z,12.67
2018-06-27T11:11:54.931Z,13.90
2018-06-27T11:14:24.828Z,14.93
2018-06-27T11:16:55.048Z,16.87
2018-06-27T11:19:24.940Z,15.37
2018-06-27T11:21:54.873Z,16.27
2018-06-27T11:24:24.738Z,16.57
2018-06-27T11:26:55.073Z,17.77
2018-06-27T11:29:25.021Z,16.63
2018-06-27T11:31:54.854Z,17.00
2018-06-27T11:34:24.751Z,19.10
2018-06-27T11:36:54.641Z,19.60
2018-06-27T11:39:24.596Z,20.43
2018-06-27T11:41:54.551Z,19.53
2018-06-27T11:44:24.464Z,20.97
2018-06-27T11:46:54.355Z,20.20
2018-06-27T11:49:24.388Z,19.80
2018-06-27T11:51:54.300Z,18.30
2018-06-27T11:54:24.272Z,17.10
2018-06-27T11:56:54.208Z,19.90
2018-06-27T11:59:24.095Z,20.63
2018-06-27T12:01:53.992Z,19.53
2018-06-27T12:04:23.931Z,17.73
2018-06-27T12:06:53.785Z,19.83
2018-06-27T12:09:23.660Z,20.53
2018-06-27T12:11:53.628Z,20.07
2018-06-27T12:14:23.592Z,18.87
2018-06-27T12:16:53.596Z,19.57
2018-06-27T12:19:23.530Z,18.93
2018-06-27T12:21:53.557Z,19.60
2018-06-27T12:24:23.429Z,21.87
2018-06-27T12:26:53.364Z,19.60
2018-06-27T12:29:23.316Z,22.53
2018-06-27T12:31:53.277Z,21.73
2018-06-27T12:34:23.289Z,23.60
2018-06-27T12:36:53.253Z,21.27
2018-06-27T12:39:23.112Z,20.90
2018-06-27T12:41:53.061Z,19.13
2018-06-27T12:44:22.916Z,18.97
2018-06-27T12:46:52.930Z,17.63
2018-06-27T12:49:22.904Z,17.47
2018-06-27T12:51:52.804Z,18.80
2018-06-27T12:54:22.745Z,17.80
2018-06-27T12:56:52.592Z,19.70
2018-06-27T12:59:22.586Z,17.53
2018-06-27T13:01:53.860Z,17.47
2018-06-27T13:04:23.777Z,19.47
2018-06-27T13:06:53.724Z,19.67
2018-06-27T13:09:23.776Z,20.40
2018-06-27T13:11:53.997Z,18.13
2018-06-27T13:14:24.071Z,19.37
2018-06-27T13:16:53.983Z,19.40
2018-06-27T13:19:23.901Z,18.33
2018-06-27T13:21:53.858Z,20.10
2018-06-27T13:24:23.748Z,17.97
2018-06-27T13:26:53.604Z,17.37
2018-06-27T13:29:23.484Z,16.00
2018-06-27T13:31:53.386Z,16.13
2018-06-27T13:34:23.212Z,17.43
2018-06-27T13:36:53.116Z,17.07
2018-06-27T13:39:22.988Z,17.37
2018-06-27T13:41:53.060Z,17.60
2018-06-27T13:44:22.920Z,17.40
2018-06-27T13:46:52.881Z,15.80
2018-06-27T13:49:22.808Z,17.23
2018-06-27T13:51:52.676Z,17.43
2018-06-27T13:54:22.548Z,16.63
2018-06-27T13:56:52.480Z,16.70
2018-06-27T13:59:22.460Z,17.93
2018-06-27T14:01:52.708Z,16.50
2018-06-27T14:04:22.660Z,16.87
2018-06-27T14:06:52.590Z,16.43
2018-06-27T14:09:23.486Z,15.30
2018-06-27T14:11:53.296Z,14.93
2018-06-27T14:14:23.157Z,15.43
2018-06-27T14:16:53.091Z,14.33
2018-06-27T14:19:22.912Z,13.73
2018-06-27T14:21:52.948Z,13.03
2018-06-27T14:24:22.850Z,14.23
2018-06-27T14:26:52.844Z,14.77
2018-06-27T14:29:22.733Z,14.07
2018-06-27T14:31:52.669Z,15.57
2018-06-27T14:34:22.562Z,14.10
2018-06-27T14:36:52.476Z,15.37
2018-06-27T14:39:22.402Z,14.00
2018-06-27T14:41:52.289Z,14.50
2018-06-27T14:44:22.242Z,14.47
2018-06-27T14:46:52.053Z,14.23
2018-06-27T14:49:22.216Z,13.93
2018-06-27T14:51:52.137Z,13.97
2018-06-27T14:54:22.009Z,14.80
2018-06-27T14:56:52.016Z,15.07
2018-06-27T14:59:21.988Z,14.13
2018-06-27T15:01:51.872Z,15.50
2018-06-27T15:04:21.810Z,15.60
2018-06-27T15:06:51.725Z,15.43
2018-06-27T15:09:21.568Z,15.93
2018-06-27T15:11:51.481Z,15.83
2018-06-27T15:14:21.473Z,16.23
2018-06-27T15:16:51.411Z,16.60
2018-06-27T15:19:21.201Z,16.67
2018-06-27T15:21:51.080Z,15.77
2018-06-27T15:24:20.959Z,16.60
2018-06-27T15:26:50.933Z,16.47
2018-06-27T15:29:20.801Z,15.83
2018-06-27T15:31:50.770Z,15.63
2018-06-27T15:34:20.592Z,16.27
2018-06-27T15:36:50.497Z,15.47
2018-06-27T15:39:20.404Z,15.40
2018-06-27T15:41:50.375Z,15.27
2018-06-27T15:44:20.272Z,14.27
2018-06-27T15:46:50.178Z,14.50
2018-06-27T15:49:20.082Z,14.90
2018-06-27T15:51:49.964Z,15.97
2018-06-27T15:54:19.947Z,15.87
2018-06-27T15:56:49.873Z,15.90
2018-06-27T15:59:19.688Z,15.20
2018-06-27T16:01:49.693Z,14.47
2018-06-27T16:04:19.717Z,15.13
2018-06-27T16:06:49.705Z,16.70
2018-06-27T16:09:19.548Z,16.23
2018-06-27T16:11:49.543Z,16.27
2018-06-27T16:14:19.465Z,16.30
2018-06-27T16:16:49.455Z,15.70
2018-06-27T16:19:19.300Z,15.87
2018-06-27T16:21:49.120Z,16.33
2018-06-27T16:24:19.028Z,15.60
2018-06-27T16:26:48.936Z,16.57
2018-06-27T16:29:18.808Z,17.10
2018-06-27T16:31:48.629Z,17.47
2018-06-27T16:34:18.582Z,18.37
2018-06-27T16:36:48.430Z,17.57
2018-06-27T16:39:18.249Z,18.23
2018-06-27T16:41:48.155Z,15.83
2018-06-27T16:44:18.006Z,17.47
2018-06-27T16:46:47.892Z,17.53
2018-06-27T16:49:17.795Z,18.23
2018-06-27T16:51:47.689Z,17.97
2018-06-27T16:54:17.555Z,19.07
2018-06-27T16:56:47.525Z,18.07
2018-06-27T16:59:17.448Z,18.73
2018-06-27T17:01:47.312Z,19.47
2018-06-27T17:04:17.449Z,19.17
2018-06-27T17:06:47.401Z,19.47
2018-06-27T17:09:17.264Z,18.23
2018-06-27T17:11:47.105Z,18.53
2018-06-27T17:14:16.984Z,18.00
2018-06-27T17:16:46.844Z,19.27
2018-06-27T17:19:16.734Z,18.83
2018-06-27T17:21:46.664Z,18.37
2018-06-27T17:24:16.532Z,20.53
2018-06-27T17:26:46.420Z,19.73
2018-06-27T17:29:16.264Z,22.47
2018-06-27T17:31:46.150Z,20.90
2018-06-27T17:34:16.013Z,22.63
2018-06-27T17:36:45.885Z,20.07
2018-06-27T17:39:15.780Z,21.17
2018-06-27T17:41:45.604Z,21.57
2018-06-27T17:44:15.532Z,21.57
2018-06-27T17:46:45.348Z,22.10
2018-06-27T17:49:15.211Z,21.90
2018-06-27T17:51:45.052Z,21.40
2018-06-27T17:54:15.821Z,23.40
2018-06-27T17:56:45.744Z,24.33
2018-06-27T17:59:15.648Z,22.83
2018-06-27T18:01:45.665Z,23.23
2018-06-27T18:04:15.554Z,24.07
2018-06-27T18:06:45.461Z,24.63
2018-06-27T18:09:15.416Z,22.80
2018-06-27T18:11:45.400Z,21.73
2018-06-27T18:14:15.236Z,23.33
2018-06-27T18:16:45.177Z,22.43
2018-06-27T18:19:15.852Z,22.57
2018-06-27T18:21:45.805Z,20.67
2018-06-27T18:24:15.680Z,20.70
2018-06-27T18:26:45.561Z,21.50
2018-06-27T18:29:15.518Z,20.10
2018-06-27T18:31:45.325Z,20.73
2018-06-27T18:34:15.241Z,21.33
2018-06-27T18:36:45.123Z,21.97
2018-06-27T18:39:15.639Z,20.67
2018-06-27T18:41:45.473Z,20.53
2018-06-27T18:44:15.368Z,20.40
2018-06-27T18:46:45.248Z,20.20
2018-06-27T18:49:15.576Z,21.83
2018-06-27T18:51:45.451Z,22.47
2018-06-27T18:54:15.264Z,23.67
2018-06-27T18:56:45.145Z,24.00
2018-06-27T18:59:15.608Z,24.47
2018-06-27T19:01:45.544Z,24.93
2018-06-27T19:04:15.516Z,24.87
2018-06-27T19:06:45.402Z,25.37
2018-06-27T19:09:15.284Z,28.33
2018-06-27T19:11:45.176Z,30.03
2018-06-27T19:14:15.878Z,30.43
2018-06-27T19:16:45.700Z,28.00
2018-06-27T19:19:15.540Z,28.23
2018-06-27T19:21:45.421Z,27.63
2018-06-27T19:24:15.332Z,28.07
2018-06-27T19:26:45.234Z,28.13
2018-06-27T19:29:15.601Z,27.33
2018-06-27T19:31:45.477Z,27.07
2018-06-27T19:34:15.328Z,30.60
2018-06-27T19:36:45.193Z,32.00
2018-06-27T19:39:15.625Z,32.63
2018-06-27T19:41:45.473Z,33.30
2018-06-27T19:44:15.384Z,31.03
2018-06-27T19:46:45.281Z,31.63
2018-06-27T19:49:15.597Z,31.83
2018-06-27T19:51:45.553Z,31.87
2018-06-27T19:54:15.471Z,31.63
2018-06-27T19:56:45.352Z,31.30
2018-06-27T19:59:15.441Z,31.60
2018-06-27T20:01:45.327Z,29.63
2018-06-27T20:04:15.240Z,29.70
2018-06-27T20:06:45.205Z,30.53
2018-06-27T20:09:15.692Z,30.27
2018-06-27T20:11:45.600Z,29.67
2018-06-27T20:14:15.468Z,30.37
2018-06-27T20:16:45.330Z,28.63
2018-06-27T20:19:15.923Z,29.67
2018-06-27T20:21:45.797Z,30.73
2018-06-27T20:24:15.664Z,30.23
2018-06-27T20:26:45.538Z,31.73
2018-06-27T20:29:16.123Z,30.00
2018-06-27T20:31:45.992Z,30.23
2018-06-27T20:34:15.896Z,31.60
2018-06-27T20:36:45.761Z,32.07
2018-06-27T20:39:15.680Z,31.27
2018-06-27T20:41:45.557Z,30.67
2018-06-27T20:44:15.476Z,32.33
2018-06-27T20:46:45.353Z,31.87
2018-06-27T20:49:15.185Z,31.63
2018-06-27T20:51:45.148Z,32.83
2018-06-27T20:54:15.926Z,32.37
2018-06-27T20:56:45.844Z,30.67
2018-06-27T20:59:15.704Z,30.60
2018-06-27T21:01:45.548Z,29.43
2018-06-27T21:04:15.455Z,29.77
2018-06-27T21:06:45.264Z,28.50
2018-06-27T21:09:16.008Z,31.60
2018-06-27T21:11:45.845Z,30.20
2018-06-27T21:14:15.748Z,31.07
2018-06-27T21:16:45.571Z,32.07
2018-06-27T21:19:15.433Z,31.87
2018-06-27T21:21:45.337Z,33.33
2018-06-27T21:24:16.001Z,32.73
2018-06-27T21:26:45.844Z,33.00
2018-06-27T21:29:15.961Z,33.13
2018-06-27T21:31:45.833Z,33.40
2018-06-27T21:34:15.686Z,32.40
2018-06-27T21:36:45.537Z,33.27
2018-06-27T21:39:15.497Z,31.73
2018-06-27T21:41:45.356Z,31.93
2018-06-27T21:44:15.168Z,32.87
2018-06-27T21:46:45.019Z,33.43
2018-06-27T21:49:14.832Z,32.20
2018-06-27T21:51:44.680Z,33.90
2018-06-27T21:54:14.500Z,31.93
2018-06-27T21:56:44.352Z,33.87
2018-06-27T21:59:14.457Z,34.20
2018-06-27T22:01:45.135Z,35.43
2018-06-27T22:04:15.080Z,35.90
2018-06-27T22:06:44.928Z,34.10
2018-06-27T22:09:14.898Z,36.67
2018-06-27T22:11:44.790Z,35.20
2018-06-27T22:14:14.657Z,36.03
2018-06-27T22:16:44.593Z,36.50
2018-06-27T22:19:14.414Z,33.93
2018-06-27T22:21:44.297Z,36.10
2018-06-27T22:24:14.769Z,37.87
2018-06-27T22:26:44.624Z,36.93
2018-06-27T22:29:14.428Z,37.43
2018-06-27T22:31:44.261Z,37.30
2018-06-27T22:34:14.197Z,39.10
2018-06-27T22:36:44.096Z,36.90
2018-06-27T22:39:13.972Z,34.67
2018-06-27T22:41:43.882Z,34.67
2018-06-27T22:44:13.717Z,33.63
2018-06-27T22:46:43.560Z,33.37
2018-06-27T22:49:13.435Z,35.73
2018-06-27T22:51:43.243Z,34.33
2018-06-27T22:54:13.146Z,35.57
2018-06-27T22:56:43.020Z,34.63
2018-06-27T22:59:12.880Z,33.23
2018-06-27T23:01:42.728Z,32.93
2018-06-27T23:04:12.620Z,33.77
2018-06-27T23:06:42.522Z,33.20
2018-06-27T23:09:12.367Z,33.50
2018-06-27T23:11:42.234Z,33.40
2018-06-27T23:14:12.117Z,34.00
2018-06-27T23:16:42.713Z,36.87
2018-06-27T23:19:12.654Z,35.03
2018-06-27T23:21:42.632Z,32.03
2018-06-27T23:24:12.492Z,31.80
2018-06-27T23:26:42.654Z,33.33
2018-06-27T23:29:12.521Z,33.63
2018-06-27T23:31:42.593Z,34.43
2018-06-27T23:34:12.476Z,32.97
2018-06-27T23:36:42.404Z,31.37
2018-06-27T23:39:13.465Z,31.53
2018-06-27T23:41:43.897Z,29.37
2018-06-27T23:44:13.783Z,32.27
2018-06-27T23:46:43.613Z,32.40
2018-06-27T23:49:13.534Z,31.60
2018-06-27T23:51:43.384Z,29.97
2018-06-27T23:54:13.243Z,29.80
2018-06-27T23:56:43.109Z,29.30
2018-06-27T23:59:12.948Z,28.53
